Time;durP1;ratioP1;P1;durP2;ratioP2;P2;SDS_P1;SDS_P2;PMS_P1;PMS_P2;Temp;Humidity;BMP_temperature;BMP_pressure;BME280_temperature;BME280_humidity;BME280_pressure;Samples;Min_cycle;Max_cycle;Signal;HPM_P1;HPM_P2
2023/08/07 00:01:09;;;;;;;2.20;0.83;;;;;;;13.33;100.00;100145.84;5012732;28;20254;-81
2023/08/07 00:03:36;;;;;;;3.33;0.97;;;;;;;13.33;100.00;100146.72;5012274;28;20208;-82
2023/08/07 00:06:02;;;;;;;2.43;0.90;;;;;;;13.33;100.00;100140.53;5012959;28;20225;-82
2023/08/07 00:08:30;;;;;;;2.10;1.10;;;;;;;13.43;100.00;100144.94;5007357;28;21126;-82
2023/08/07 00:11:07;;;;;;;3.03;1.03;;;;;;;13.44;100.00;100144.03;5012354;28;20230;-80
2023/08/07 00:13:33;;;;;;;4.80;1.17;;;;;;;13.51;100.00;100144.91;5012416;28;20212;-83
2023/08/07 00:16:00;;;;;;;2.13;0.80;;;;;;;13.52;100.00;100147.56;5004858;28;20223;-82
2023/08/07 00:18:28;;;;;;;3.43;1.10;;;;;;;13.56;100.00;100138.69;5006128;28;20700;-80
2023/08/07 00:20:55;;;;;;;4.53;0.80;;;;;;;13.53;100.00;100148.44;5012321;28;20203;-82
2023/08/07 00:23:21;;;;;;;2.43;0.90;;;;;;;13.60;100.00;100142.22;5012392;28;20580;-81
2023/08/07 00:25:47;;;;;;;3.23;1.20;;;;;;;13.60;100.00;100145.75;5012332;28;20227;-81
2023/08/07 00:28:14;;;;;;;2.00;1.00;;;;;;;13.57;100.00;100143.13;4994889;28;20251;-80
2023/08/07 00:30:40;;;;;;;8.40;1.10;;;;;;;13.57;100.00;100139.56;4991975;28;20299;-79
2023/08/07 00:33:07;;;;;;;1.60;1.00;;;;;;;13.61;100.00;100136.91;5012452;28;20304;-81
2023/08/07 00:35:33;;;;;;;1.67;0.97;;;;;;;13.61;100.00;100143.97;5011474;28;20223;-78
2023/08/07 00:37:59;;;;;;;3.33;1.00;;;;;;;13.61;100.00;100138.66;5004551;28;20321;-79
2023/08/07 00:40:26;;;;;;;1.87;0.90;;;;;;;13.56;100.00;100146.66;5005418;28;20674;-79
2023/08/07 00:42:52;;;;;;;4.87;1.13;;;;;;;13.64;100.00;100134.25;5012221;28;20208;-80
2023/08/07 00:45:18;;;;;;;3.63;1.20;;;;;;;13.62;100.00;100136.03;4994738;28;20196;-80
2023/08/07 00:47:45;;;;;;;2.70;1.03;;;;;;;13.62;100.00;100144.00;5009833;28;20225;-79
2023/08/07 00:50:12;;;;;;;3.63;1.30;;;;;;;13.65;100.00;100148.44;5009663;28;20588;-79
2023/08/07 00:52:38;;;;;;;5.00;1.30;;;;;;;13.62;100.00;100140.47;5011436;28;20656;-78
2023/08/07 00:55:05;;;;;;;4.83;1.33;;;;;;;13.58;100.00;100136.91;4994879;28;20216;-78
2023/08/07 00:57:32;;;;;;;6.60;1.40;;;;;;;13.66;100.00;100150.22;4994483;28;20223;-77
2023/08/07 00:59:59;;;;;;;4.27;1.50;;;;;;;13.58;100.00;100142.22;5005737;28;20289;-77
2023/08/07 01:02:25;;;;;;;4.57;1.40;;;;;;;13.59;100.00;100144.00;5009713;28;20747;-74
2023/08/07 01:04:52;;;;;;;11.73;1.67;;;;;;;13.55;100.00;100147.56;5011835;28;20629;-74
2023/08/07 01:07:19;;;;;;;6.27;2.00;;;;;;;13.57;100.00;100150.22;5011862;28;20311;-75
2023/08/07 01:09:45;;;;;;;3.03;1.37;;;;;;;13.58;100.00;100151.97;5004422;28;20212;-76
2023/08/07 01:12:18;;;;;;;7.47;1.30;;;;;;;13.54;100.00;100152.88;4992154;28;20204;-82
2023/08/07 01:15:09;;;;;;;7.93;1.60;;;;;;;13.51;100.00;100152.88;5011305;28;20224;-81
2023/08/07 01:17:37;;;;;;;6.60;1.43;;;;;;;13.51;100.00;100164.41;5008735;28;20258;-82
2023/08/07 01:20:04;;;;;;;5.20;1.53;;;;;;;13.45;100.00;100151.13;5011030;28;20661;-81
2023/08/07 01:22:30;;;;;;;7.97;2.20;;;;;;;13.43;100.00;100145.81;5009730;28;20204;-82
2023/08/07 01:24:57;;;;;;;2.53;1.50;;;;;;;13.46;100.00;100150.25;4993600;28;20286;-81
2023/08/07 01:27:37;;;;;;;4.57;1.80;;;;;;;13.43;100.00;100160.91;5011434;28;20723;-79
2023/08/07 01:30:10;;;;;;;3.83;1.67;;;;;;;13.43;100.00;100160.91;4978169;28;20271;-81
2023/08/07 01:32:36;;;;;;;5.03;1.47;;;;;;;13.47;100.00;100150.25;4979075;28;20222;-79
2023/08/07 01:35:06;;;;;;;10.13;1.77;;;;;;;13.43;100.00;100155.56;4990132;28;20221;-77
2023/08/07 01:37:36;;;;;;;5.63;1.77;;;;;;;13.44;100.00;100155.56;4976164;28;20221;-77
2023/08/07 01:40:05;;;;;;;2.27;1.47;;;;;;;13.47;100.00;100147.56;4979187;28;20201;-76
2023/08/07 01:42:32;;;;;;;4.73;1.80;;;;;;;13.47;100.00;100154.69;4995303;28;20208;-74
2023/08/07 01:44:58;;;;;;;4.53;1.90;;;;;;;13.57;100.00;100163.50;4993307;28;20200;-76
2023/08/07 01:47:25;;;;;;;7.80;2.20;;;;;;;13.56;100.00;100159.09;4994328;28;20228;-75
2023/08/07 01:49:51;;;;;;;5.60;1.93;;;;;;;13.55;100.00;100157.31;4990817;28;20205;-73
2023/08/07 01:52:18;;;;;;;5.27;1.70;;;;;;;13.64;100.00;100168.84;4973304;28;20500;-74
2023/08/07 01:54:45;;;;;;;6.87;1.93;;;;;;;13.53;100.00;100165.28;5008555;28;20208;-76
2023/08/07 01:57:11;;;;;;;4.87;1.80;;;;;;;13.52;100.00;100158.22;4998331;28;20239;-78
2023/08/07 01:59:38;;;;;;;8.20;1.83;;;;;;;13.51;100.00;100163.53;4973896;28;20575;-76
2023/08/07 02:02:04;;;;;;;6.87;1.77;;;;;;;13.49;100.00;100158.22;4990934;28;20342;-77
2023/08/07 02:04:31;;;;;;;7.87;1.90;;;;;;;13.47;100.00;100166.19;4987269;28;20196;-77
2023/08/07 02:06:57;;;;;;;7.43;2.20;;;;;;;13.45;100.00;100156.44;5007688;28;20211;-76
2023/08/07 02:09:24;;;;;;;8.00;2.37;;;;;;;13.37;100.00;100159.13;4990939;28;20287;-77
2023/08/07 02:11:50;;;;;;;6.23;2.30;;;;;;;13.38;100.00;100160.03;4998392;28;20602;-75
2023/08/07 02:14:17;;;;;;;4.00;2.10;;;;;;;13.32;100.00;100168.91;4999551;28;20655;-77
2023/08/07 02:16:43;;;;;;;5.30;2.10;;;;;;;13.32;100.00;100163.56;5009298;28;20296;-77
2023/08/07 02:19:09;;;;;;;8.47;2.53;;;;;;;13.32;100.00;100176.88;4990620;28;20664;-80
2023/08/07 02:21:36;;;;;;;5.40;2.27;;;;;;;13.36;100.00;100173.31;4973454;28;20208;-80
2023/08/07 02:24:03;;;;;;;5.10;2.37;;;;;;;13.35;100.00;100170.66;4980092;28;20287;-82
2023/08/07 02:26:29;;;;;;;4.97;2.30;;;;;;;13.32;100.00;100174.22;5010352;28;20204;-78
2023/08/07 02:28:55;;;;;;;8.13;2.40;;;;;;;13.25;100.00;100179.56;4991187;28;20227;-78
2023/08/07 02:31:22;;;;;;;9.13;2.40;;;;;;;13.24;100.00;100181.31;4990594;28;20292;-80
2023/08/07 02:33:48;;;;;;;6.83;2.43;;;;;;;13.20;100.00;100175.97;4989842;28;20204;-82
2023/08/07 02:36:15;;;;;;;6.40;1.90;;;;;;;13.17;100.00;100167.13;4991262;28;20301;-80
2023/08/07 02:38:41;;;;;;;5.93;2.10;;;;;;;13.20;100.00;100181.28;4983964;28;20228;-80
2023/08/07 02:41:07;;;;;;;4.73;2.50;;;;;;;13.15;100.00;100179.50;4990797;28;20266;-80
2023/08/07 02:43:34;;;;;;;5.23;2.10;;;;;;;13.21;100.00;100186.66;4990271;28;20202;-79
2023/08/07 02:46:00;;;;;;;6.30;2.03;;;;;;;13.16;100.00;100178.59;4984913;28;20287;-79
2023/08/07 02:48:27;;;;;;;6.07;2.20;;;;;;;13.22;100.00;100185.75;5003679;28;20224;-81
2023/08/07 02:50:53;;;;;;;5.80;2.00;;;;;;;13.26;100.00;100184.88;4990352;28;20770;-82
2023/08/07 02:53:19;;;;;;;7.40;2.43;;;;;;;13.21;100.00;100183.06;4995926;28;20206;-81
2023/08/07 02:55:46;;;;;;;7.83;2.37;;;;;;;13.23;100.00;100174.22;4999940;28;20231;-80
2023/08/07 02:58:12;;;;;;;3.40;2.30;;;;;;;13.22;100.00;100175.13;5009792;28;20225;-82
2023/08/07 03:00:39;;;;;;;5.87;2.07;;;;;;;13.25;100.00;100167.13;4997326;28;20211;-79
2023/08/07 03:03:05;;;;;;;7.33;2.40;;;;;;;13.27;100.00;100167.13;4994112;28;20210;-81
2023/08/07 03:05:31;;;;;;;7.30;2.67;;;;;;;13.20;100.00;100183.97;4996762;28;20215;-82
2023/08/07 03:07:58;;;;;;;9.27;2.63;;;;;;;13.14;100.00;100179.50;5013801;28;20230;-82
2023/08/07 03:10:24;;;;;;;4.67;1.90;;;;;;;13.11;100.00;100175.06;4982197;28;20308;-82
2023/08/07 03:12:52;;;;;;;8.03;2.17;;;;;;;13.12;100.00;100179.50;4994125;28;20262;-80
2023/08/07 03:15:18;;;;;;;4.83;1.80;;;;;;;13.21;100.00;100188.38;4994069;28;20692;-81
2023/08/07 03:17:45;;;;;;;9.73;2.40;;;;;;;13.13;100.00;100194.56;5010493;28;20746;-81
2023/08/07 03:20:11;;;;;;;5.77;2.20;;;;;;;13.12;100.00;100197.22;5001553;28;20207;-81
2023/08/07 03:22:38;;;;;;;5.70;2.17;;;;;;;13.12;100.00;100183.94;4976816;28;20210;-81
2023/08/07 03:25:05;;;;;;;4.67;2.10;;;;;;;13.14;100.00;100192.78;4982717;28;20230;-82
2023/08/07 03:27:31;;;;;;;6.30;2.40;;;;;;;13.20;100.00;100189.28;5004830;28;20798;-80
2023/08/07 03:29:57;;;;;;;5.20;2.50;;;;;;;13.17;100.00;100182.19;5010436;28;20236;-79
2023/08/07 03:32:24;;;;;;;6.83;2.47;;;;;;;13.19;100.00;100180.41;4993787;28;20570;-79
2023/08/07 03:34:50;;;;;;;5.83;2.33;;;;;;;13.21;100.00;100184.00;4993781;28;20269;-81
2023/08/07 03:37:17;;;;;;;6.20;2.30;;;;;;;13.21;100.00;100170.69;4999495;28;20220;-78
2023/08/07 03:39:47;;;;;;;5.97;2.33;;;;;;;13.23;100.00;100184.00;5012585;28;20203;-78
2023/08/07 03:42:17;;;;;;;4.90;2.10;;;;;;;13.33;100.00;100183.09;4993261;28;20707;-80
2023/08/07 03:44:43;;;;;;;4.47;2.10;;;;;;;13.33;100.00;100181.31;4976286;28;20579;-77
2023/08/07 03:47:10;;;;;;;5.00;2.13;;;;;;;13.36;100.00;100191.06;4995255;28;20253;-79
2023/08/07 03:49:36;;;;;;;5.20;2.03;;;;;;;13.44;100.00;100194.59;4995401;28;20578;-77
2023/08/07 03:52:03;;;;;;;5.53;2.10;;;;;;;13.45;100.00;100185.72;5001677;28;20508;-77
2023/08/07 03:54:29;;;;;;;6.60;2.20;;;;;;;13.49;100.00;100195.47;4993645;28;20236;-77
2023/08/07 03:56:56;;;;;;;5.10;2.00;;;;;;;13.49;100.00;100188.38;4994614;28;20590;-75
2023/08/07 03:59:23;;;;;;;3.83;2.00;;;;;;;13.52;100.00;100199.88;4987664;23;20262;-69
2023/08/07 04:01:49;;;;;;;4.57;1.80;;;;;;;13.48;100.00;100197.22;4991356;28;20710;-68
2023/08/07 04:04:15;;;;;;;4.00;2.10;;;;;;;13.45;100.00;100199.00;4993202;28;20287;-70
2023/08/07 04:06:43;;;;;;;4.83;2.17;;;;;;;13.39;100.00;100188.38;4984541;28;20204;-68
2023/08/07 04:09:10;;;;;;;7.00;2.23;;;;;;;13.38;100.00;100191.94;4990678;28;20598;-70
2023/08/07 04:11:36;;;;;;;3.70;2.10;;;;;;;13.34;100.00;100190.16;4992729;28;20608;-69
2023/08/07 04:14:03;;;;;;;6.63;2.13;;;;;;;13.26;100.00;100184.88;4973701;28;20565;-70
2023/08/07 04:16:31;;;;;;;3.50;1.83;;;;;;;13.29;100.00;100187.53;4993209;28;20224;-69
2023/08/07 04:18:57;;;;;;;6.33;2.03;;;;;;;13.25;100.00;100191.06;4979409;28;20785;-70
2023/08/07 04:21:24;;;;;;;5.60;1.97;;;;;;;13.20;100.00;100189.28;4993002;28;20210;-70
2023/08/07 04:23:50;;;;;;;6.57;1.90;;;;;;;13.15;100.00;100189.25;4975376;28;20223;-67
2023/08/07 04:26:16;;;;;;;4.93;2.00;;;;;;;13.13;100.00;100189.25;4968440;28;20282;-70
2023/08/07 04:28:43;;;;;;;6.23;2.10;;;;;;;13.08;100.00;100195.47;4976126;28;20274;-66
2023/08/07 04:31:09;;;;;;;5.60;2.10;;;;;;;13.10;100.00;100193.69;4975371;28;20204;-69
2023/08/07 04:33:36;;;;;;;7.13;2.27;;;;;;;13.02;100.00;100190.16;4991373;28;20215;-71
2023/08/07 04:36:02;;;;;;;5.03;2.00;;;;;;;13.05;100.00;100187.47;4992338;28;20223;-68
2023/08/07 04:38:29;;;;;;;5.47;1.93;;;;;;;13.15;100.00;100200.78;4978112;28;20231;-69
2023/08/07 04:40:55;;;;;;;5.27;2.27;;;;;;;13.24;100.00;100188.41;4971792;28;20239;-69
2023/08/07 04:43:22;;;;;;;5.97;2.00;;;;;;;13.22;100.00;100207.03;4976804;28;20229;-69
2023/08/07 04:45:49;;;;;;;9.33;2.07;;;;;;;13.21;100.00;100217.63;4989824;28;20672;-68
2023/08/07 04:48:15;;;;;;;7.07;2.30;;;;;;;13.25;100.00;100215.00;4988181;28;20319;-70
2023/08/07 04:50:42;;;;;;;6.37;2.00;;;;;;;13.33;100.00;100218.53;4992294;28;20278;-69
2023/08/07 04:53:08;;;;;;;4.87;2.00;;;;;;;13.35;100.00;100215.88;4980859;28;20207;-70
2023/08/07 04:55:35;;;;;;;5.47;2.00;;;;;;;13.37;100.00;100224.75;4984781;28;20707;-71
2023/08/07 04:58:02;;;;;;;4.73;1.90;;;;;;;13.36;100.00;100223.84;4989192;28;20232;-70
2023/08/07 05:00:29;;;;;;;4.67;1.90;;;;;;;13.44;100.00;100221.19;4972753;28;20307;-70
2023/08/07 05:02:55;;;;;;;6.30;1.93;;;;;;;13.37;100.00;100222.97;4979421;28;20592;-70
2023/08/07 05:05:23;;;;;;;5.93;1.93;;;;;;;13.39;100.00;100229.19;4976948;28;20255;-69
2023/08/07 05:07:49;;;;;;;4.17;2.07;;;;;;;13.41;100.00;100219.41;4990832;28;20724;-67
2023/08/07 05:10:16;;;;;;;4.97;2.07;;;;;;;13.43;100.00;100232.72;4967400;28;20211;-69
2023/08/07 05:12:42;;;;;;;4.60;1.80;;;;;;;13.47;100.00;100234.50;4975989;28;20493;-69
2023/08/07 05:15:09;;;;;;;7.63;2.23;;;;;;;13.52;100.00;100235.38;4972275;28;20235;-69
2023/08/07 05:17:35;;;;;;;4.80;1.57;;;;;;;13.54;100.00;100228.25;4987295;28;20223;-70
2023/08/07 05:20:02;;;;;;;4.63;2.10;;;;;;;13.60;100.00;100236.22;4981048;28;20677;-71
2023/08/07 05:22:29;;;;;;;5.03;1.90;;;;;;;13.64;100.00;100230.03;4991165;28;20205;-69
2023/08/07 05:24:55;;;;;;;5.57;1.80;;;;;;;13.63;100.00;100235.38;4989147;28;20240;-68
2023/08/07 05:27:22;;;;;;;4.67;1.80;;;;;;;13.69;100.00;100227.38;4986246;28;20195;-70
2023/08/07 05:29:48;;;;;;;7.63;1.90;;;;;;;13.63;100.00;100240.69;4982775;28;20201;-66
2023/08/07 05:32:14;;;;;;;6.57;2.20;;;;;;;13.69;100.00;100240.69;4972092;28;20659;-68
2023/08/07 05:34:41;;;;;;;5.03;2.03;;;;;;;13.67;100.00;100235.38;4980152;28;20239;-69
2023/08/07 05:37:10;;;;;;;6.77;1.77;;;;;;;13.68;100.00;100236.25;4988558;28;20223;-69
2023/08/07 05:39:36;;;;;;;5.50;2.17;;;;;;;13.60;100.00;100232.69;4991626;28;20221;-69
2023/08/07 05:42:03;;;;;;;4.10;1.80;;;;;;;13.67;100.00;100255.78;4972636;28;20402;-69
2023/08/07 05:44:29;;;;;;;7.77;2.20;;;;;;;13.66;100.00;100249.56;4972136;28;20688;-68
2023/08/07 05:46:56;;;;;;;5.10;2.13;;;;;;;13.66;100.00;100259.31;4976040;28;20204;-69
2023/08/07 05:49:22;;;;;;;5.67;1.77;;;;;;;13.61;100.00;100259.31;4991162;28;20326;-69
2023/08/07 05:51:51;;;;;;;5.90;2.00;;;;;;;13.67;100.00;100275.28;4974251;28;20228;-71
2023/08/07 05:54:18;;;;;;;5.57;1.80;;;;;;;13.66;100.00;100256.66;4971728;28;20736;-69
2023/08/07 05:56:46;;;;;;;4.43;1.77;;;;;;;13.71;100.00;100261.06;4982459;28;20221;-68
2023/08/07 05:59:13;;;;;;;4.00;1.80;;;;;;;13.75;100.00;100265.50;4990200;28;20263;-67
2023/08/07 06:01:40;;;;;;;4.67;1.97;;;;;;;13.86;100.00;100284.13;4983956;28;20206;-69
2023/08/07 06:04:08;;;;;;;4.77;1.80;;;;;;;13.90;100.00;100285.00;4971479;28;20237;-66
2023/08/07 06:06:35;;;;;;;3.33;1.93;;;;;;;13.84;100.00;100271.69;4972025;28;20193;-69
2023/08/07 06:09:06;;;;;;;3.37;1.93;;;;;;;13.88;100.00;100276.13;4984683;28;20315;-71
2023/08/07 06:11:32;;;;;;;4.97;1.87;;;;;;;13.89;100.00;100280.56;4984564;28;20302;-69
2023/08/07 06:13:59;;;;;;;4.93;1.77;;;;;;;13.86;100.00;100286.78;4969940;28;20209;-71
2023/08/07 06:16:25;;;;;;;4.67;1.70;;;;;;;13.88;100.00;100282.34;4978539;28;20505;-69
2023/08/07 06:18:52;;;;;;;3.10;1.90;;;;;;;13.89;100.00;100288.53;4979900;28;20260;-70
2023/08/07 06:21:20;;;;;;;5.97;2.07;;;;;;;13.85;100.00;100287.66;4985970;28;20205;-70
2023/08/07 06:23:46;;;;;;;3.07;1.70;;;;;;;13.97;100.00;100287.63;4978150;28;20221;-69
2023/08/07 06:26:13;;;;;;;3.10;1.60;;;;;;;14.01;100.00;100296.53;4991231;28;20193;-68
2023/08/07 06:28:39;;;;;;;5.43;1.77;;;;;;;14.06;100.00;100289.41;4987530;28;20229;-68
2023/08/07 06:31:07;;;;;;;5.80;1.80;;;;;;;14.01;100.00;100289.44;4990184;28;20216;-68
2023/08/07 06:33:34;;;;;;;4.20;1.77;;;;;;;14.05;100.00;100295.63;4991084;28;20208;-70
2023/08/07 06:36:01;;;;;;;3.67;1.50;;;;;;;14.18;100.00;100302.69;4990712;28;20287;-68
2023/08/07 06:38:27;;;;;;;5.43;1.90;;;;;;;14.18;100.00;100307.13;4988236;28;20268;-70
2023/08/07 06:40:54;;;;;;;3.70;1.70;;;;;;;14.29;100.00;100308.88;4970788;28;20209;-70
2023/08/07 06:43:21;;;;;;;6.03;1.90;;;;;;;14.21;100.00;100305.34;4990330;28;20197;-68
2023/08/07 06:45:51;;;;;;;3.37;1.60;;;;;;;14.32;100.00;100307.97;4990261;28;20212;-68
2023/08/07 06:48:18;;;;;;;2.57;1.50;;;;;;;14.48;100.00;100306.19;4989963;28;20299;-69
2023/08/07 06:50:46;;;;;;;4.23;1.63;;;;;;;14.57;100.00;100314.13;4987871;28;20216;-69
2023/08/07 06:53:13;;;;;;;4.97;2.00;;;;;;;14.50;100.00;100313.28;4990581;28;20228;-69
2023/08/07 06:55:41;;;;;;;2.60;1.70;;;;;;;14.55;100.00;100311.47;4990652;28;20209;-70
2023/08/07 06:58:08;;;;;;;4.10;1.80;;;;;;;14.68;100.00;100321.19;4983253;28;20220;-68
2023/08/07 07:00:35;;;;;;;2.93;1.50;;;;;;;14.69;100.00;100304.31;4988443;28;20668;-69
2023/08/07 07:03:02;;;;;;;5.70;2.47;;;;;;;14.62;100.00;100315.88;4988483;28;20232;-69
2023/08/07 07:05:30;;;;;;;4.33;1.80;;;;;;;14.76;100.00;100313.16;4989903;28;20251;-68
2023/08/07 07:07:57;;;;;;;5.43;1.63;;;;;;;14.94;100.00;100315.75;4990207;28;20220;-68
2023/08/07 07:10:23;;;;;;;3.73;1.97;;;;;;;15.00;100.00;100321.03;4990233;28;20287;-70
2023/08/07 07:12:50;;;;;;;4.03;1.90;;;;;;;15.02;100.00;100318.34;4987867;28;20216;-70
2023/08/07 07:15:16;;;;;;;3.97;1.70;;;;;;;15.00;100.00;100322.81;4990239;28;20208;-70
2023/08/07 07:17:43;;;;;;;4.60;1.90;;;;;;;15.14;100.00;100325.38;4987540;28;20697;-70
2023/08/07 07:20:10;;;;;;;2.40;1.63;;;;;;;14.98;100.00;100325.50;4989562;28;20239;-67
2023/08/07 07:22:37;;;;;;;3.23;1.57;;;;;;;14.87;100.00;100313.13;4988285;28;20205;-70
2023/08/07 07:25:04;;;;;;;2.67;1.50;;;;;;;14.80;100.00;100338.00;4989690;28;20281;-69
2023/08/07 07:27:30;;;;;;;4.10;1.80;;;;;;;14.84;100.00;100343.34;4990051;28;20201;-70
2023/08/07 07:29:56;;;;;;;7.00;2.20;;;;;;;14.88;100.00;100347.78;4989467;28;20205;-70
2023/08/07 07:32:24;;;;;;;5.13;1.70;;;;;;;14.99;100.00;100339.72;4988528;28;20288;-68
2023/08/07 07:34:50;;;;;;;4.47;1.57;;;;;;;15.09;100.00;100340.53;4989809;28;20251;-70
2023/08/07 07:37:17;;;;;;;4.33;1.60;;;;;;;15.29;100.00;100349.31;4990001;28;20227;-71
2023/08/07 07:39:43;;;;;;;3.93;2.00;;;;;;;15.17;100.00;100358.25;4990067;28;20287;-69
2023/08/07 07:42:10;;;;;;;3.73;1.70;;;;;;;15.13;100.00;100353.84;4987066;28;20205;-70
2023/08/07 07:44:38;;;;;;;5.03;1.73;;;;;;;15.19;100.00;100355.59;4990178;28;20673;-70
2023/08/07 07:47:05;;;;;;;5.33;1.50;;;;;;;15.04;100.00;100357.47;4992849;28;20209;-66
2023/08/07 07:49:33;;;;;;;4.13;1.73;;;;;;;15.24;100.00;100364.47;4993552;28;20307;-67
2023/08/07 07:51:59;;;;;;;3.67;1.50;;;;;;;15.15;100.00;100359.19;4990233;28;20205;-67
2023/08/07 07:54:28;;;;;;;5.07;1.50;;;;;;;15.25;100.00;100368.91;4991873;28;20212;-67
2023/08/07 07:56:54;;;;;;;3.50;2.03;;;;;;;15.40;100.00;100366.16;4993069;28;20227;-70
2023/08/07 07:59:21;;;;;;;5.13;1.60;;;;;;;15.42;100.00;100371.47;4992993;28;20279;-67
2023/08/07 08:01:47;;;;;;;4.03;1.83;;;;;;;15.26;100.00;100370.69;4992730;28;20208;-67
2023/08/07 08:04:14;;;;;;;5.37;2.40;;;;;;;15.40;100.00;100384.81;4985106;28;20201;-69
2023/08/07 08:06:41;;;;;;;6.47;1.80;;;;;;;15.45;100.00;100385.69;4993352;28;20303;-70
2023/08/07 08:09:09;;;;;;;5.57;2.93;;;;;;;15.34;100.00;100384.88;4992838;28;20238;-68
2023/08/07 08:11:35;;;;;;;5.63;2.07;;;;;;;15.43;100.00;100389.25;4976232;28;20293;-68
2023/08/07 08:14:02;;;;;;;6.93;1.93;;;;;;;15.45;100.00;100396.34;4983978;28;20205;-67
2023/08/07 08:16:28;;;;;;;6.07;1.67;;;;;;;15.53;100.00;100391.84;4992862;28;20211;-69
2023/08/07 08:18:55;;;;;;;4.13;1.90;;;;;;;15.59;100.00;100393.63;4994210;28;20225;-67
2023/08/07 08:21:21;;;;;;;4.47;1.90;;;;;;;15.47;100.00;100391.88;4993899;28;20245;-69
2023/08/07 08:23:47;;;;;;;4.20;1.90;;;;;;;15.58;100.00;100391.84;4985935;28;20216;-69
2023/08/07 08:26:14;;;;;;;6.57;2.43;;;;;;;15.84;100.00;100407.69;4992612;28;20205;-68
2023/08/07 08:28:40;;;;;;;8.83;2.27;;;;;;;15.98;100.00;100400.44;4992775;28;20221;-67
2023/08/07 08:31:06;;;;;;;3.40;1.70;;;;;;;16.15;100.00;100405.66;4993327;28;20220;-66
2023/08/07 08:33:33;;;;;;;4.13;1.90;;;;;;;16.28;100.00;100407.28;4992732;28;20896;-66
2023/08/07 08:35:59;;;;;;;5.97;2.13;;;;;;;16.74;100.00;100418.44;4990623;28;20291;-70
2023/08/07 08:38:32;;;;;;;4.43;1.90;;;;;;;16.85;100.00;100410.31;4991248;28;20228;-68
2023/08/07 08:41:02;;;;;;;4.37;1.77;;;;;;;16.95;100.00;100413.75;4992497;28;20577;-68
2023/08/07 08:43:34;;;;;;;3.97;1.77;;;;;;;16.67;100.00;100414.06;4991522;28;20207;-68
2023/08/07 08:46:01;;;;;;;5.40;1.83;;;;;;;16.60;100.00;100420.34;4984699;28;20518;-68
2023/08/07 08:48:31;;;;;;;5.97;2.03;;;;;;;16.10;100.00;100426.19;4992169;28;20304;-68
2023/08/07 08:50:58;;;;;;;3.67;1.70;;;;;;;15.98;100.00;100422.69;4974200;28;20295;-68
2023/08/07 08:53:25;;;;;;;4.60;1.80;;;;;;;15.91;100.00;100437.00;4972818;28;20638;-68
2023/08/07 08:55:52;;;;;;;5.60;2.10;;;;;;;15.90;100.00;100429.88;4988903;28;20470;-66
2023/08/07 08:58:20;;;;;;;2.93;1.70;;;;;;;15.72;100.00;100439.81;4991983;28;20229;-67
2023/08/07 09:00:47;;;;;;;4.30;1.67;;;;;;;15.72;100.00;100430.03;4976764;28;20261;-71
2023/08/07 09:03:14;;;;;;;7.47;1.90;;;;;;;15.67;100.00;100445.19;4991271;28;20201;-68
2023/08/07 09:05:41;;;;;;;5.37;1.83;;;;;;;15.59;100.00;100442.56;4989141;28;20240;-70
2023/08/07 09:08:09;;;;;;;4.90;1.80;;;;;;;15.53;100.00;100447.00;4990700;28;20225;-67
2023/08/07 09:10:36;;;;;;;3.87;1.90;;;;;;;15.52;100.00;100453.25;4992059;28;20203;-68
2023/08/07 09:13:05;;;;;;;3.43;1.70;;;;;;;15.52;100.00;100455.91;4987941;28;20209;-70
2023/08/07 09:15:33;;;;;;;5.70;1.77;;;;;;;15.45;100.00;100456.84;4991774;28;20205;-67
2023/08/07 09:18:00;;;;;;;5.57;2.10;;;;;;;15.41;100.00;100441.75;4991218;28;20232;-69
2023/08/07 09:20:28;;;;;;;8.27;1.97;;;;;;;15.41;100.00;100456.00;4991427;28;20236;-67
2023/08/07 09:22:54;;;;;;;4.30;1.80;;;;;;;15.22;100.00;100460.53;4989332;28;20213;-69
2023/08/07 09:25:31;;;;;;;4.10;1.70;;;;;;;15.34;100.00;100465.81;4992031;28;20228;-69
2023/08/07 09:27:57;;;;;;;5.87;2.10;;;;;;;15.44;100.00;100452.41;4991376;28;20232;-69
2023/08/07 09:30:29;;;;;;;2.87;1.60;;;;;;;15.25;100.00;100473.88;4991667;28;20212;-71
2023/08/07 09:33:02;;;;;;;4.27;1.60;;;;;;;15.13;100.00;100468.56;4988904;28;20211;-67
2023/08/07 09:35:31;;;;;;;2.87;1.67;;;;;;;15.01;100.00;100474.84;4991060;28;20208;-70
2023/08/07 09:37:58;;;;;;;4.50;1.80;;;;;;;15.13;100.00;100476.56;4970948;28;20764;-68
2023/08/07 09:40:24;;;;;;;5.77;1.90;;;;;;;15.27;100.00;100471.19;4991333;28;20201;-67
2023/08/07 09:42:52;;;;;;;3.70;1.50;;;;;;;15.35;100.00;100470.25;4990786;28;20225;-71
2023/08/07 09:45:20;;;;;;;5.83;2.03;;;;;;;15.66;100.00;100487.03;4987697;28;20215;-71
2023/08/07 09:47:56;;;;;;;3.30;1.90;;;;;;;16.19;100.00;100479.53;4984265;28;20256;-71
2023/08/07 09:50:23;;;;;;;4.47;1.77;;;;;;;16.37;100.00;100483.84;4971947;28;20662;-70
2023/08/07 09:52:49;;;;;;;4.63;1.70;;;;;;;16.48;100.00;100487.31;4987288;28;20683;-69
2023/08/07 09:55:16;;;;;;;3.27;1.63;;;;;;;16.37;100.00;100483.84;4984178;28;20203;-69
2023/08/07 09:57:44;;;;;;;4.23;2.17;;;;;;;16.47;100.00;100478.41;5014086;23;20279;-71
2023/08/07 10:00:15;;;;;;;6.40;1.73;;;;;;;16.74;100.00;100495.09;4989390;28;20224;-71
2023/08/07 10:02:45;;;;;;;3.70;1.57;;;;;;;16.94;100.00;100501.16;4990504;28;20232;-73
2023/08/07 10:05:15;;;;;;;3.80;1.77;;;;;;;16.83;100.00;100505.75;4988779;28;22842;-71
2023/08/07 10:07:42;;;;;;;4.80;2.17;;;;;;;16.61;100.00;100497.00;4990418;28;20333;-72
2023/08/07 10:10:10;;;;;;;3.97;1.53;;;;;;;16.59;100.00;100496.13;4972055;28;20697;-71
2023/08/07 10:12:37;;;;;;;4.30;1.83;;;;;;;16.65;100.00;100497.84;4971009;28;20228;-72
2023/08/07 10:15:05;;;;;;;3.33;1.60;;;;;;;16.59;100.00;100502.34;4971678;28;20205;-73
2023/08/07 10:17:32;;;;;;;4.23;1.90;;;;;;;17.10;100.00;100499.19;4973085;28;20223;-71
2023/08/07 10:19:58;;;;;;;5.10;2.10;;;;;;;17.70;100.00;100505.59;4973487;28;20247;-72
2023/08/07 10:22:27;;;;;;;4.57;1.70;;;;;;;17.87;100.00;100501.78;4971086;28;20205;-72
2023/08/07 10:24:56;;;;;;;3.90;1.80;;;;;;;18.31;100.00;100504.66;4977862;28;20216;-71
2023/08/07 10:27:25;;;;;;;4.73;1.60;;;;;;;18.32;100.00;100500.19;4965970;28;20201;-72
2023/08/07 10:29:53;;;;;;;2.70;1.43;;;;;;;18.32;100.00;100511.78;4969891;28;20232;-72
2023/08/07 10:32:21;;;;;;;6.00;1.70;;;;;;;18.37;100.00;100501.00;4970985;28;20198;-71
2023/08/07 10:34:51;;;;;;;2.43;1.43;;;;;;;18.23;100.00;100505.69;4971281;28;20205;-72
2023/08/07 10:37:40;;;;;;;4.20;2.00;;;;;;;17.91;100.00;100520.47;4984699;28;20201;-72
2023/08/07 10:40:12;;;;;;;3.80;1.80;;;;;;;17.60;100.00;100511.03;4980278;28;20616;-71
2023/08/07 10:43:13;;;;;;;4.17;1.50;;;;;;;17.28;100.00;100516.84;4971005;28;20625;-72
2023/08/07 10:45:39;;;;;;;2.77;1.73;;;;;;;17.18;100.00;100511.56;4905970;28;20213;-71
2023/08/07 10:48:07;;;;;;;4.47;1.83;;;;;;;17.10;100.00;100518.78;4979445;28;20725;-72
2023/08/07 10:50:48;;;;;;;2.30;1.47;;;;;;;17.55;100.00;100522.72;4984618;28;20631;-72
2023/08/07 10:53:29;;;;;;;3.50;1.70;;;;;;;17.54;100.00;100528.97;4970725;28;20209;-72
2023/08/07 10:55:58;;;;;;;5.57;1.80;;;;;;;17.59;100.00;100531.59;4970677;28;20212;-72
2023/08/07 10:58:33;;;;;;;4.13;1.63;;;;;;;17.54;100.00;100534.31;4970009;28;20228;-71
2023/08/07 11:01:19;;;;;;;4.67;1.73;;;;;;;17.90;100.00;100531.22;4981263;28;20240;-72
2023/08/07 11:04:09;;;;;;;4.77;1.60;;;;;;;17.75;100.00;100527.84;4970769;28;20583;-72
2023/08/07 11:06:37;;;;;;;9.20;1.60;;;;;;;18.13;100.00;100529.97;4966490;28;20679;-72
2023/08/07 11:09:07;;;;;;;2.43;1.50;;;;;;;18.67;100.00;100524.66;4986965;28;20221;-71
2023/08/07 11:11:40;;;;;;;3.53;1.77;;;;;;;18.51;81.53;100531.16;4984958;28;20205;-71
2023/08/07 11:14:18;;;;;;;3.90;1.77;;;;;;;18.99;73.47;100533.91;4970418;28;20204;-72
2023/08/07 11:16:47;;;;;;;3.90;1.60;;;;;;;19.29;71.37;100536.03;4968725;28;20209;-72
2023/08/07 11:19:16;;;;;;;3.43;1.60;;;;;;;19.80;70.26;100535.88;4981705;28;20220;-72